sensor_id;sensor_type;location;lat;lon;timestamp;pressure;altitude;pressure_sealevel;temperature;humidity
48035;BME280;33812;46.480;6.834;2024-02-28T00:02:54;93160.19;;;23.51;32.92
48035;BME280;33812;46.480;6.834;2024-02-28T00:06:56;93162.34;;;23.47;33.07
48035;BME280;33812;46.480;6.834;2024-02-28T00:10:59;93160.66;;;23.50;32.91
48035;BME280;33812;46.480;6.834;2024-02-28T00:15:01;93168.97;;;23.50;32.78
48035;BME280;33812;46.480;6.834;2024-02-28T00:19:04;93165.41;;;23.49;32.63
48035;BME280;33812;46.480;6.834;2024-02-28T00:23:05;93168.66;;;23.48;32.79
48035;BME280;33812;46.480;6.834;2024-02-28T00:27:08;93166.94;;;23.50;32.62
48035;BME280;33812;46.480;6.834;2024-02-28T00:31:10;93176.97;;;23.48;32.67
48035;BME280;33812;46.480;6.834;2024-02-28T00:35:12;93180.97;;;23.47;32.63
48035;BME280;33812;46.480;6.834;2024-02-28T00:39:14;93177.47;;;23.46;32.53
48035;BME280;33812;46.480;6.834;2024-02-28T00:43:17;93182.53;;;23.48;32.34
48035;BME280;33812;46.480;6.834;2024-02-28T00:47:19;93185.00;;;23.46;32.23
48035;BME280;33812;46.480;6.834;2024-02-28T00:51:20;93192.25;;;23.43;32.50
48035;BME280;33812;46.480;6.834;2024-02-28T00:55:22;93203.63;;;23.45;32.23
48035;BME280;33812;46.480;6.834;2024-02-28T00:59:25;93198.09;;;23.45;32.64
48035;BME280;33812;46.480;6.834;2024-02-28T01:03:27;93203.63;;;23.45;32.21
48035;BME280;33812;46.480;6.834;2024-02-28T01:07:29;93204.88;;;23.44;32.43
48035;BME280;33812;46.480;6.834;2024-02-28T01:11:31;93201.03;;;23.41;32.50
48035;BME280;33812;46.480;6.834;2024-02-28T01:15:35;93212.91;;;23.42;32.54
48035;BME280;33812;46.480;6.834;2024-02-28T01:19:36;93208.91;;;23.43;32.23
48035;BME280;33812;46.480;6.834;2024-02-28T01:23:38;93210.91;;;23.42;32.43
48035;BME280;33812;46.480;6.834;2024-02-28T01:27:40;93205.19;;;23.37;32.69
48035;BME280;33812;46.480;6.834;2024-02-28T01:31:43;93211.50;;;23.37;32.30
48035;BME280;33812;46.480;6.834;2024-02-28T01:35:45;93207.19;;;23.36;32.65
48035;BME280;33812;46.480;6.834;2024-02-28T01:39:46;93205.34;;;23.33;32.29
48035;BME280;33812;46.480;6.834;2024-02-28T01:43:48;93207.63;;;23.35;32.45
48035;BME280;33812;46.480;6.834;2024-02-28T01:47:51;93205.97;;;23.37;32.19
48035;BME280;33812;46.480;6.834;2024-02-28T01:51:54;93216.75;;;23.35;31.93
48035;BME280;33812;46.480;6.834;2024-02-28T01:55:57;93207.38;;;23.33;32.13
48035;BME280;33812;46.480;6.834;2024-02-28T01:59:59;93218.25;;;23.36;32.39
48035;BME280;33812;46.480;6.834;2024-02-28T02:04:03;93233.06;;;23.33;32.19
48035;BME280;33812;46.480;6.834;2024-02-28T02:08:05;93216.59;;;23.29;32.25
48035;BME280;33812;46.480;6.834;2024-02-28T02:12:07;93226.00;;;23.32;32.50
48035;BME280;33812;46.480;6.834;2024-02-28T02:16:09;93227.53;;;23.33;32.60
48035;BME280;33812;46.480;6.834;2024-02-28T02:20:14;93235.25;;;23.29;32.71
48035;BME280;33812;46.480;6.834;2024-02-28T02:24:18;93237.88;;;23.33;32.67
48035;BME280;33812;46.480;6.834;2024-02-28T02:28:19;93229.22;;;23.30;32.63
48035;BME280;33812;46.480;6.834;2024-02-28T02:32:21;93234.63;;;23.34;32.64
48035;BME280;33812;46.480;6.834;2024-02-28T02:36:23;93235.84;;;23.33;32.60
48035;BME280;33812;46.480;6.834;2024-02-28T02:40:26;93238.78;;;23.29;32.59
48035;BME280;33812;46.480;6.834;2024-02-28T02:44:28;93233.06;;;23.33;32.79
48035;BME280;33812;46.480;6.834;2024-02-28T02:48:29;93248.94;;;23.33;32.90
48035;BME280;33812;46.480;6.834;2024-02-28T02:52:31;93241.84;;;23.31;32.60
48035;BME280;33812;46.480;6.834;2024-02-28T02:56:34;93258.66;;;23.28;32.77
48035;BME280;33812;46.480;6.834;2024-02-28T03:00:36;93260.94;;;23.29;32.79
48035;BME280;33812;46.480;6.834;2024-02-28T03:04:38;93253.88;;;23.28;32.47
48035;BME280;33812;46.480;6.834;2024-02-28T03:08:39;93256.19;;;23.30;32.51
48035;BME280;33812;46.480;6.834;2024-02-28T03:12:43;93261.41;;;23.28;32.50
48035;BME280;33812;46.480;6.834;2024-02-28T03:16:45;93265.44;;;23.27;32.31
48035;BME280;33812;46.480;6.834;2024-02-28T03:20:48;93269.59;;;23.22;32.59
48035;BME280;33812;46.480;6.834;2024-02-28T03:24:50;93274.97;;;23.26;32.48
48035;BME280;33812;46.480;6.834;2024-02-28T03:28:53;93283.28;;;23.26;32.29
48035;BME280;33812;46.480;6.834;2024-02-28T03:32:55;93298.09;;;23.23;32.21
48035;BME280;33812;46.480;6.834;2024-02-28T03:36:57;93292.53;;;23.23;32.38
48035;BME280;33812;46.480;6.834;2024-02-28T03:40:58;93307.19;;;23.23;32.26
48035;BME280;33812;46.480;6.834;2024-02-28T03:45:02;93307.19;;;23.23;32.34
48035;BME280;33812;46.480;6.834;2024-02-28T03:49:04;93314.41;;;23.21;32.02
48035;BME280;33812;46.480;6.834;2024-02-28T03:53:06;93318.41;;;23.29;32.34
48035;BME280;33812;46.480;6.834;2024-02-28T03:57:08;93326.13;;;23.25;32.21
48035;BME280;33812;46.480;6.834;2024-02-28T04:01:12;93327.03;;;23.22;31.95
48035;BME280;33812;46.480;6.834;2024-02-28T04:05:14;93336.56;;;23.21;31.97
48035;BME280;33812;46.480;6.834;2024-02-28T04:09:17;93337.81;;;23.19;32.02
48035;BME280;33812;46.480;6.834;2024-02-28T04:13:20;93335.97;;;23.16;32.00
48035;BME280;33812;46.480;6.834;2024-02-28T04:17:23;93330.75;;;23.18;31.98
48035;BME280;33812;46.480;6.834;2024-02-28T04:21:25;93346.28;;;23.16;32.15
48035;BME280;33812;46.480;6.834;2024-02-28T04:25:27;93344.28;;;23.16;32.07
48035;BME280;33812;46.480;6.834;2024-02-28T04:29:29;93347.53;;;23.15;32.17
48035;BME280;33812;46.480;6.834;2024-02-28T04:33:32;93341.53;;;23.16;32.33
48035;BME280;33812;46.480;6.834;2024-02-28T04:37:33;93351.84;;;23.16;32.13
48035;BME280;33812;46.480;6.834;2024-02-28T04:41:36;93346.75;;;23.14;32.05
48035;BME280;33812;46.480;6.834;2024-02-28T04:45:38;93347.06;;;23.16;31.93
48035;BME280;33812;46.480;6.834;2024-02-28T04:49:41;93362.59;;;23.14;31.87
48035;BME280;33812;46.480;6.834;2024-02-28T04:53:43;93354.28;;;23.14;32.14
48035;BME280;33812;46.480;6.834;2024-02-28T04:57:45;93370.47;;;23.15;32.07
48035;BME280;33812;46.480;6.834;2024-02-28T05:01:47;93367.84;;;23.12;32.13
48035;BME280;33812;46.480;6.834;2024-02-28T05:05:50;93371.69;;;23.14;32.15
48035;BME280;33812;46.480;6.834;2024-02-28T05:09:52;93382.47;;;23.12;32.15
48035;BME280;33812;46.480;6.834;2024-02-28T05:13:54;93377.25;;;23.14;32.15
48035;BME280;33812;46.480;6.834;2024-02-28T05:17:56;93386.03;;;23.13;32.16
48035;BME280;33812;46.480;6.834;2024-02-28T05:21:59;93393.41;;;23.16;32.01
48035;BME280;33812;46.480;6.834;2024-02-28T05:26:03;93396.97;;;23.16;32.20
48035;BME280;33812;46.480;6.834;2024-02-28T05:30:07;93393.28;;;23.29;31.53
48035;BME280;33812;46.480;6.834;2024-02-28T05:34:09;93401.28;;;23.27;31.72
48035;BME280;33812;46.480;6.834;2024-02-28T05:38:12;93412.06;;;23.25;31.62
48035;BME280;33812;46.480;6.834;2024-02-28T05:42:14;93414.50;;;23.23;31.69
48035;BME280;33812;46.480;6.834;2024-02-28T05:46:22;93408.66;;;23.21;31.69
48035;BME280;33812;46.480;6.834;2024-02-28T05:50:24;93420.66;;;23.17;31.86
48035;BME280;33812;46.480;6.834;2024-02-28T05:54:28;93432.06;;;23.19;31.78
48035;BME280;33812;46.480;6.834;2024-02-28T05:58:30;93433.16;;;23.13;31.73
48035;BME280;33812;46.480;6.834;2024-02-28T06:02:32;93442.38;;;23.10;31.80
48035;BME280;33812;46.480;6.834;2024-02-28T06:06:34;93445.16;;;23.10;32.18
48035;BME280;33812;46.480;6.834;2024-02-28T06:10:37;93453.00;;;23.11;31.77
48035;BME280;33812;46.480;6.834;2024-02-28T06:14:39;93450.25;;;23.11;31.95
48035;BME280;33812;46.480;6.834;2024-02-28T06:18:41;93466.41;;;23.13;31.70
48035;BME280;33812;46.480;6.834;2024-02-28T06:22:43;93461.94;;;23.15;31.59
48035;BME280;33812;46.480;6.834;2024-02-28T06:26:46;93478.88;;;23.17;31.89
48035;BME280;33812;46.480;6.834;2024-02-28T06:30:48;93479.19;;;23.19;31.82
48035;BME280;33812;46.480;6.834;2024-02-28T06:34:49;93485.66;;;23.26;31.92
48035;BME280;33812;46.480;6.834;2024-02-28T06:38:51;93492.31;;;23.28;31.88
48035;BME280;33812;46.480;6.834;2024-02-28T06:42:54;93499.28;;;23.52;30.97
48035;BME280;33812;46.480;6.834;2024-02-28T06:46:56;93497.47;;;23.67;30.27
48035;BME280;33812;46.480;6.834;2024-02-28T06:50:59;93502.41;;;23.73;30.07
48035;BME280;33812;46.480;6.834;2024-02-28T06:55:00;93505.03;;;23.67;29.81
48035;BME280;33812;46.480;6.834;2024-02-28T06:59:05;93512.59;;;23.76;29.29
48035;BME280;33812;46.480;6.834;2024-02-28T07:03:07;93514.13;;;23.96;28.51
48035;BME280;33812;46.480;6.834;2024-02-28T07:07:09;93521.53;;;23.99;29.02
48035;BME280;33812;46.480;6.834;2024-02-28T07:11:13;93534.16;;;24.00;28.65
48035;BME280;33812;46.480;6.834;2024-02-28T07:15:16;93534.16;;;24.00;29.26
48035;BME280;33812;46.480;6.834;2024-02-28T07:19:20;93537.09;;;23.87;29.20
48035;BME280;33812;46.480;6.834;2024-02-28T07:23:22;93543.09;;;23.76;29.93
48035;BME280;33812;46.480;6.834;2024-02-28T07:27:25;93549.91;;;23.94;29.43
48035;BME280;33812;46.480;6.834;2024-02-28T07:31:28;93549.56;;;24.01;29.54
48035;BME280;33812;46.480;6.834;2024-02-28T07:35:30;93559.00;;;24.03;29.80
48035;BME280;33812;46.480;6.834;2024-02-28T07:39:31;93556.38;;;24.00;29.68
48035;BME280;33812;46.480;6.834;2024-02-28T07:43:33;93557.63;;;23.99;29.89
48035;BME280;33812;46.480;6.834;2024-02-28T07:47:39;93552.34;;;23.82;29.88
48035;BME280;33812;46.480;6.834;2024-02-28T07:51:41;93563.16;;;23.89;29.56
48035;BME280;33812;46.480;6.834;2024-02-28T07:55:43;93567.31;;;23.85;29.71
48035;BME280;33812;46.480;6.834;2024-02-28T07:59:45;93567.47;;;23.81;29.89
48035;BME280;33812;46.480;6.834;2024-02-28T08:03:49;93562.22;;;23.74;29.94
48035;BME280;33812;46.480;6.834;2024-02-28T08:07:51;93578.53;;;23.72;29.58
48035;BME280;33812;46.480;6.834;2024-02-28T08:11:53;93578.88;;;23.74;29.76
48035;BME280;33812;46.480;6.834;2024-02-28T08:15:54;93601.06;;;23.74;29.54
48035;BME280;33812;46.480;6.834;2024-02-28T08:19:58;93601.38;;;23.76;29.27
48035;BME280;33812;46.480;6.834;2024-02-28T08:23:59;93616.47;;;23.75;29.41
48035;BME280;33812;46.480;6.834;2024-02-28T08:28:04;93616.47;;;23.75;29.05
48035;BME280;33812;46.480;6.834;2024-02-28T08:32:06;93616.31;;;23.78;29.52
48035;BME280;33812;46.480;6.834;2024-02-28T08:36:09;93614.81;;;23.87;29.23
48035;BME280;33812;46.480;6.834;2024-02-28T08:40:11;93622.34;;;23.86;28.80
48035;BME280;33812;46.480;6.834;2024-02-28T08:44:14;93621.91;;;23.88;28.76
48035;BME280;33812;46.480;6.834;2024-02-28T08:48:16;93634.69;;;23.95;28.99
48035;BME280;33812;46.480;6.834;2024-02-28T08:52:20;93629.78;;;23.99;28.54
48035;BME280;33812;46.480;6.834;2024-02-28T08:56:22;93614.97;;;24.02;29.32
48035;BME280;33812;46.480;6.834;2024-02-28T09:00:25;93631.00;;;23.98;28.68
48035;BME280;33812;46.480;6.834;2024-02-28T09:04:27;93631.47;;;23.96;29.32
48035;BME280;33812;46.480;6.834;2024-02-28T09:08:30;93630.09;;;24.10;28.31
48035;BME280;33812;46.480;6.834;2024-02-28T09:12:33;93625.94;;;24.15;28.68
48035;BME280;33812;46.480;6.834;2024-02-28T09:16:35;93624.41;;;24.14;28.78
48035;BME280;33812;46.480;6.834;2024-02-28T09:20:36;93623.75;;;24.10;28.50
48035;BME280;33812;46.480;6.834;2024-02-28T09:24:40;93623.63;;;24.13;28.07
48035;BME280;33812;46.480;6.834;2024-02-28T09:28:41;93633.81;;;24.17;28.21
48035;BME280;33812;46.480;6.834;2024-02-28T09:32:43;93636.16;;;24.27;29.03
48035;BME280;33812;46.480;6.834;2024-02-28T09:36:45;93645.88;;;24.32;28.43
48035;BME280;33812;46.480;6.834;2024-02-28T09:40:49;93638.03;;;24.31;29.47
48035;BME280;33812;46.480;6.834;2024-02-28T09:44:50;93636.94;;;24.37;29.16
48035;BME280;33812;46.480;6.834;2024-02-28T09:48:53;93642.94;;;24.26;28.83
48035;BME280;33812;46.480;6.834;2024-02-28T09:52:56;93644.34;;;24.41;28.62
48035;BME280;33812;46.480;6.834;2024-02-28T09:57:00;93644.66;;;24.43;29.55
48035;BME280;33812;46.480;6.834;2024-02-28T10:01:04;93635.53;;;24.42;28.89
48035;BME280;33812;46.480;6.834;2024-02-28T10:05:09;93634.13;;;24.47;29.72
48035;BME280;33812;46.480;6.834;2024-02-28T10:09:11;93635.22;;;24.49;29.27
48035;BME280;33812;46.480;6.834;2024-02-28T10:13:17;93634.44;;;24.49;29.57
48035;BME280;33812;46.480;6.834;2024-02-28T10:17:19;93630.00;;;24.51;30.14
48035;BME280;33812;46.480;6.834;2024-02-28T10:21:22;93640.63;;;24.53;29.65
48035;BME280;33812;46.480;6.834;2024-02-28T10:25:26;93638.94;;;24.46;29.55
48035;BME280;33812;46.480;6.834;2024-02-28T10:29:31;93639.09;;;24.43;29.31
48035;BME280;33812;46.480;6.834;2024-02-28T10:33:33;93639.09;;;24.43;29.43
48035;BME280;33812;46.480;6.834;2024-02-28T10:37:37;93651.28;;;24.45;29.16
48035;BME280;33812;46.480;6.834;2024-02-28T10:41:39;93660.38;;;24.46;27.76
48035;BME280;33812;46.480;6.834;2024-02-28T10:45:42;93656.66;;;24.39;28.88
48035;BME280;33812;46.480;6.834;2024-02-28T10:49:45;93657.59;;;24.36;29.13
48035;BME280;33812;46.480;6.834;2024-02-28T10:53:49;93666.69;;;24.27;29.29
48035;BME280;33812;46.480;6.834;2024-02-28T10:58:00;93669.94;;;24.35;29.72
48035;BME280;33812;46.480;6.834;2024-02-28T11:02:05;93668.69;;;24.18;31.39
48035;BME280;33812;46.480;6.834;2024-02-28T11:06:16;93670.06;;;24.13;31.91
48035;BME280;33812;46.480;6.834;2024-02-28T11:10:23;93671.78;;;24.20;31.94
48035;BME280;33812;46.480;6.834;2024-02-28T11:14:25;93674.41;;;24.23;32.77
48035;BME280;33812;46.480;6.834;2024-02-28T11:18:30;93668.72;;;24.27;32.56
48035;BME280;33812;46.480;6.834;2024-02-28T11:22:32;93669.16;;;24.25;32.67
48035;BME280;33812;46.480;6.834;2024-02-28T11:26:34;93669.47;;;24.27;32.81
48035;BME280;33812;46.480;6.834;2024-02-28T11:30:36;93689.06;;;24.33;33.41
48035;BME280;33812;46.480;6.834;2024-02-28T11:34:39;93687.41;;;24.36;33.10
48035;BME280;33812;46.480;6.834;2024-02-28T11:38:41;93691.72;;;24.37;34.14
48035;BME280;33812;46.480;6.834;2024-02-28T11:42:44;93685.06;;;24.44;35.12
48035;BME280;33812;46.480;6.834;2024-02-28T11:46:46;93685.69;;;24.48;34.63
48035;BME280;33812;46.480;6.834;2024-02-28T11:50:50;93688.75;;;24.50;34.92
48035;BME280;33812;46.480;6.834;2024-02-28T11:54:53;93683.22;;;24.50;34.32
48035;BME280;33812;46.480;6.834;2024-02-28T11:58:58;93684.78;;;24.51;34.53
48035;BME280;33812;46.480;6.834;2024-02-28T12:03:09;93691.41;;;24.54;34.20
48035;BME280;33812;46.480;6.834;2024-02-28T12:07:13;93684.63;;;24.55;34.07
48035;BME280;33812;46.480;6.834;2024-02-28T12:11:18;93686.00;;;24.59;34.59
48035;BME280;33812;46.480;6.834;2024-02-28T12:15:20;93689.88;;;24.62;34.20
48035;BME280;33812;46.480;6.834;2024-02-28T12:19:23;93685.84;;;24.63;34.97
48035;BME280;33812;46.480;6.834;2024-02-28T12:23:26;93693.34;;;24.15;31.71
48035;BME280;33812;46.480;6.834;2024-02-28T12:27:28;93684.66;;;23.44;31.20
48035;BME280;33812;46.480;6.834;2024-02-28T12:31:31;93687.53;;;24.23;32.24
48035;BME280;33812;46.480;6.834;2024-02-28T12:35:33;93690.19;;;24.36;31.77
48035;BME280;33812;46.480;6.834;2024-02-28T12:39:36;93682.44;;;24.40;32.34
48035;BME280;33812;46.480;6.834;2024-02-28T12:43:38;93684.28;;;24.43;32.32
48035;BME280;33812;46.480;6.834;2024-02-28T12:47:40;93687.84;;;24.44;33.88
48035;BME280;33812;46.480;6.834;2024-02-28T12:51:43;93687.53;;;24.42;33.74
48035;BME280;33812;46.480;6.834;2024-02-28T12:55:47;93691.25;;;24.38;33.93
48035;BME280;33812;46.480;6.834;2024-02-28T12:59:49;93697.88;;;24.41;33.70
48035;BME280;33812;46.480;6.834;2024-02-28T13:03:51;93702.81;;;24.37;34.38
48035;BME280;33812;46.480;6.834;2024-02-28T13:07:53;93696.78;;;24.38;33.78
48035;BME280;33812;46.480;6.834;2024-02-28T13:11:56;93697.72;;;24.35;34.55
48035;BME280;33812;46.480;6.834;2024-02-28T13:15:58;93685.84;;;24.35;34.69
48035;BME280;33812;46.480;6.834;2024-02-28T13:20:00;93684.91;;;24.38;34.87
48035;BME280;33812;46.480;6.834;2024-02-28T13:24:04;93689.72;;;24.37;34.20
48035;BME280;33812;46.480;6.834;2024-02-28T13:28:07;93692.78;;;24.39;34.72
48035;BME280;33812;46.480;6.834;2024-02-28T13:32:09;93689.25;;;24.39;34.81
48035;BME280;33812;46.480;6.834;2024-02-28T13:36:11;93694.94;;;24.45;34.15
48035;BME280;33812;46.480;6.834;2024-02-28T13:40:13;93697.56;;;24.48;34.09
48035;BME280;33812;46.480;6.834;2024-02-28T13:44:16;93699.13;;;24.49;34.14
48035;BME280;33812;46.480;6.834;2024-02-28T13:48:21;93708.53;;;24.52;34.46
48035;BME280;33812;46.480;6.834;2024-02-28T13:52:24;93712.09;;;24.53;34.06
48035;BME280;33812;46.480;6.834;2024-02-28T13:56:26;93714.41;;;24.54;34.07
48035;BME280;33812;46.480;6.834;2024-02-28T14:00:29;93720.41;;;24.53;34.26
48035;BME280;33812;46.480;6.834;2024-02-28T14:04:31;93714.56;;;24.60;29.65
48035;BME280;33812;46.480;6.834;2024-02-28T14:08:33;93723.50;;;24.64;31.70
48035;BME280;33812;46.480;6.834;2024-02-28T14:12:35;93717.31;;;24.69;31.84
48035;BME280;33812;46.480;6.834;2024-02-28T14:16:38;93740.81;;;24.68;31.83
48035;BME280;33812;46.480;6.834;2024-02-28T14:20:40;93734.94;;;24.66;30.79
48035;BME280;33812;46.480;6.834;2024-02-28T14:24:42;93737.56;;;24.70;32.04
48035;BME280;33812;46.480;6.834;2024-02-28T14:28:44;93734.94;;;24.66;31.79
48035;BME280;33812;46.480;6.834;2024-02-28T14:32:47;93746.38;;;24.68;31.35
48035;BME280;33812;46.480;6.834;2024-02-28T14:36:49;93740.81;;;24.68;31.68
48035;BME280;33812;46.480;6.834;2024-02-28T14:40:51;93736.97;;;24.66;31.09
48035;BME280;33812;46.480;6.834;2024-02-28T14:44:53;93743.72;;;24.65;31.21
48035;BME280;33812;46.480;6.834;2024-02-28T14:48:56;93739.25;;;24.58;31.04
48035;BME280;33812;46.480;6.834;2024-02-28T14:52:58;93745.28;;;24.56;31.32
48035;BME280;33812;46.480;6.834;2024-02-28T14:56:59;93744.50;;;24.56;31.17
48035;BME280;33812;46.480;6.834;2024-02-28T15:01:01;93742.00;;;24.48;30.85
48035;BME280;33812;46.480;6.834;2024-02-28T15:05:05;93742.78;;;24.49;30.78
48035;BME280;33812;46.480;6.834;2024-02-28T15:09:07;93740.63;;;24.44;31.16
48035;BME280;33812;46.480;6.834;2024-02-28T15:13:09;93749.75;;;24.44;30.79
48035;BME280;33812;46.480;6.834;2024-02-28T15:17:11;93745.25;;;24.47;31.04
48035;BME280;33812;46.480;6.834;2024-02-28T15:21:14;93748.66;;;24.42;30.76
48035;BME280;33812;46.480;6.834;2024-02-28T15:25:16;93758.81;;;24.45;30.59
48035;BME280;33812;46.480;6.834;2024-02-28T15:29:18;93763.63;;;24.44;30.66
48035;BME280;33812;46.480;6.834;2024-02-28T15:33:19;93758.06;;;24.44;30.42
48035;BME280;33812;46.480;6.834;2024-02-28T15:37:22;93760.38;;;24.46;30.62
48035;BME280;33812;46.480;6.834;2024-02-28T15:41:24;93760.53;;;24.42;30.53
48035;BME280;33812;46.480;6.834;2024-02-28T15:45:26;93757.59;;;24.36;30.42
48035;BME280;33812;46.480;6.834;2024-02-28T15:49:28;93757.75;;;24.42;30.49
48035;BME280;33812;46.480;6.834;2024-02-28T15:53:31;93764.56;;;24.41;30.38
48035;BME280;33812;46.480;6.834;2024-02-28T15:57:35;93764.84;;;24.43;30.65
48035;BME280;33812;46.480;6.834;2024-02-28T16:01:37;93769.94;;;24.45;30.26
48035;BME280;33812;46.480;6.834;2024-02-28T16:05:38;93759.59;;;24.45;30.62
48035;BME280;33812;46.480;6.834;2024-02-28T16:09:41;93760.72;;;24.48;30.52
48035;BME280;33812;46.480;6.834;2024-02-28T16:13:45;93756.69;;;24.49;30.11
48035;BME280;33812;46.480;6.834;2024-02-28T16:17:48;93758.69;;;24.48;30.11
48035;BME280;33812;46.480;6.834;2024-02-28T16:21:50;93758.22;;;24.50;29.77
48035;BME280;33812;46.480;6.834;2024-02-28T16:25:53;93752.97;;;24.52;29.92
48035;BME280;33812;46.480;6.834;2024-02-28T16:29:58;93753.28;;;24.54;29.91
48035;BME280;33812;46.480;6.834;2024-02-28T16:34:00;93753.59;;;24.56;29.91
48035;BME280;33812;46.480;6.834;2024-02-28T16:38:01;93763.34;;;24.51;29.90
48035;BME280;33812;46.480;6.834;2024-02-28T16:42:05;93750.19;;;24.43;29.65
48035;BME280;33812;46.480;6.834;2024-02-28T16:46:07;93765.31;;;24.42;29.87
48035;BME280;33812;46.480;6.834;2024-02-28T16:50:09;93765.91;;;24.36;29.82
48035;BME280;33812;46.480;6.834;2024-02-28T16:54:12;93767.63;;;24.34;29.90
48035;BME280;33812;46.480;6.834;2024-02-28T16:58:15;93772.06;;;24.31;30.09
48035;BME280;33812;46.480;6.834;2024-02-28T17:02:16;93773.59;;;24.23;30.14
48035;BME280;33812;46.480;6.834;2024-02-28T17:06:18;93767.72;;;24.21;30.26
48035;BME280;33812;46.480;6.834;2024-02-28T17:10:20;93766.19;;;24.20;30.15
48035;BME280;33812;46.480;6.834;2024-02-28T17:14:23;93779.47;;;24.25;30.12
48035;BME280;33812;46.480;6.834;2024-02-28T17:18:25;93777.31;;;24.20;30.86
48035;BME280;33812;46.480;6.834;2024-02-28T17:22:26;93790.25;;;24.23;30.45
48035;BME280;33812;46.480;6.834;2024-02-28T17:26:28;93784.97;;;24.15;30.53
48035;BME280;33812;46.480;6.834;2024-02-28T17:30:33;93783.19;;;24.22;30.92
48035;BME280;33812;46.480;6.834;2024-02-28T17:34:36;93784.06;;;24.19;31.56
48035;BME280;33812;46.480;6.834;2024-02-28T17:38:38;93783.78;;;24.26;31.49
48035;BME280;33812;46.480;6.834;2024-02-28T17:42:39;93779.94;;;24.33;31.86
48035;BME280;33812;46.480;6.834;2024-02-28T17:46:43;93781.97;;;24.42;31.38
48035;BME280;33812;46.480;6.834;2024-02-28T17:50:45;93795.75;;;24.55;31.32
48035;BME280;33812;46.480;6.834;2024-02-28T17:54:47;93795.13;;;24.50;31.30
48035;BME280;33812;46.480;6.834;2024-02-28T17:58:50;93792.50;;;24.56;31.68
48035;BME280;33812;46.480;6.834;2024-02-28T18:02:53;93806.56;;;24.62;31.38
48035;BME280;33812;46.480;6.834;2024-02-28T18:06:55;93800.53;;;24.54;31.75
48035;BME280;33812;46.480;6.834;2024-02-28T18:10:56;93811.47;;;24.48;31.51
48035;BME280;33812;46.480;6.834;2024-02-28T18:14:58;93818.44;;;24.53;31.87
48035;BME280;33812;46.480;6.834;2024-02-28T18:19:02;93812.28;;;24.58;31.15
48035;BME280;33812;46.480;6.834;2024-02-28T18:23:04;93825.16;;;20.23;30.57
48035;BME280;33812;46.480;6.834;2024-02-28T18:27:05;93810.56;;;21.88;29.25
48035;BME280;33812;46.480;6.834;2024-02-28T18:31:09;93816.53;;;23.67;29.73
48035;BME280;33812;46.480;6.834;2024-02-28T18:35:13;93809.28;;;24.02;30.08
48035;BME280;33812;46.480;6.834;2024-02-28T18:39:15;93813.88;;;24.18;26.81
48035;BME280;33812;46.480;6.834;2024-02-28T18:43:17;93810.03;;;24.34;27.25
48035;BME280;33812;46.480;6.834;2024-02-28T18:47:19;93809.75;;;24.42;27.50
48035;BME280;33812;46.480;6.834;2024-02-28T18:51:22;93808.81;;;24.35;28.78
48035;BME280;33812;46.480;6.834;2024-02-28T18:55:24;93815.25;;;24.23;29.02
48035;BME280;33812;46.480;6.834;2024-02-28T18:59:25;93811.66;;;24.13;29.42
48035;BME280;33812;46.480;6.834;2024-02-28T19:03:27;93803.75;;;24.02;30.72
48035;BME280;33812;46.480;6.834;2024-02-28T19:07:31;93798.66;;;24.00;31.44
48035;BME280;33812;46.480;6.834;2024-02-28T19:11:34;93805.25;;;23.94;31.64
48035;BME280;33812;46.480;6.834;2024-02-28T19:15:35;93802.63;;;23.90;31.88
48035;BME280;33812;46.480;6.834;2024-02-28T19:19:37;93797.53;;;23.88;32.23
48035;BME280;33812;46.480;6.834;2024-02-28T19:23:41;93802.25;;;23.78;32.51
48035;BME280;33812;46.480;6.834;2024-02-28T19:27:44;93810.25;;;23.76;32.42
48035;BME280;33812;46.480;6.834;2024-02-28T19:31:46;93810.69;;;23.75;32.55
48035;BME280;33812;46.480;6.834;2024-02-28T19:35:48;93815.78;;;23.76;33.01
48035;BME280;33812;46.480;6.834;2024-02-28T19:39:51;93813.78;;;23.77;32.79
48035;BME280;33812;46.480;6.834;2024-02-28T19:43:57;93813.53;;;23.84;34.09
48035;BME280;33812;46.480;6.834;2024-02-28T19:47:59;93812.94;;;23.89;34.76
48035;BME280;33812;46.480;6.834;2024-02-28T19:52:01;93810.16;;;23.89;34.86
48035;BME280;33812;46.480;6.834;2024-02-28T19:56:05;93817.72;;;23.89;35.28
48035;BME280;33812;46.480;6.834;2024-02-28T20:00:07;93817.25;;;23.90;35.08
48035;BME280;33812;46.480;6.834;2024-02-28T20:04:11;93814.78;;;23.93;35.37
48035;BME280;33812;46.480;6.834;2024-02-28T20:08:13;93810.66;;;23.97;35.59
48035;BME280;33812;46.480;6.834;2024-02-28T20:12:16;93812.53;;;24.00;35.13
48035;BME280;33812;46.480;6.834;2024-02-28T20:16:19;93806.97;;;24.00;35.36
48035;BME280;33812;46.480;6.834;2024-02-28T20:20:21;93817.22;;;24.13;34.39
48035;BME280;33812;46.480;6.834;2024-02-28T20:24:24;93803.59;;;24.06;34.47
48035;BME280;33812;46.480;6.834;2024-02-28T20:28:27;93813.47;;;24.07;34.40
48035;BME280;33812;46.480;6.834;2024-02-28T20:32:29;93809.28;;;24.02;34.36
48035;BME280;33812;46.480;6.834;2024-02-28T20:36:32;93806.38;;;24.06;34.53
48035;BME280;33812;46.480;6.834;2024-02-28T20:40:34;93806.25;;;24.09;34.21
48035;BME280;33812;46.480;6.834;2024-02-28T20:44:38;93809.47;;;24.08;34.31
48035;BME280;33812;46.480;6.834;2024-02-28T20:48:39;93800.50;;;24.03;33.85
48035;BME280;33812;46.480;6.834;2024-02-28T20:52:41;93806.53;;;24.02;34.31
48035;BME280;33812;46.480;6.834;2024-02-28T20:56:43;93801.09;;;23.98;34.30
48035;BME280;33812;46.480;6.834;2024-02-28T21:00:46;93795.38;;;23.93;34.44
48035;BME280;33812;46.480;6.834;2024-02-28T21:04:48;93792.72;;;23.89;34.48
48035;BME280;33812;46.480;6.834;2024-02-28T21:08:52;93796.28;;;23.89;34.40
48035;BME280;33812;46.480;6.834;2024-02-28T21:12:55;93793.84;;;23.91;34.27
48035;BME280;33812;46.480;6.834;2024-02-28T21:16:59;93789.19;;;23.88;34.70
48035;BME280;33812;46.480;6.834;2024-02-28T21:21:00;93787.47;;;23.82;34.70
48035;BME280;33812;46.480;6.834;2024-02-28T21:25:03;93782.69;;;23.82;34.50